createdAt,value
2017-04-04T09:49:20.523Z,1022.93
2017-04-04T09:50:29.364Z,1022.88
2017-04-04T09:54:14.334Z,1022.99
2017-04-04T09:55:23.174Z,1023.03
2017-04-04T09:56:32.018Z,1023.06
2017-04-04T09:57:40.871Z,1023.02
2017-04-04T09:58:50.028Z,1023.01
2017-04-04T09:59:58.867Z,1023
2017-04-04T10:01:07.714Z,1023
2017-04-04T10:02:16.558Z,1022.98
2017-04-04T10:03:25.415Z,1023.01
2017-04-04T10:04:34.264Z,1023.02
2017-04-04T10:05:43.145Z,1023.03
2017-04-04T10:06:51.991Z,1023.06
2017-04-04T10:08:00.843Z,1023.06
2017-04-04T10:09:09.687Z,1023.06
2017-04-04T10:10:18.534Z,1023.07
2017-04-04T10:11:27.703Z,1023.09
2017-04-04T10:12:36.545Z,1023.05
2017-04-04T10:13:45.398Z,1023.04
2017-04-04T10:14:54.246Z,1023.01
2017-04-04T10:16:03.087Z,1023.01
2017-04-04T10:17:12.252Z,1023.01
2017-04-04T10:18:21.102Z,1022.97
2017-04-04T10:19:30.265Z,1022.97
2017-04-04T10:20:39.113Z,1022.93
2017-04-04T10:21:47.963Z,1022.92
2017-04-04T10:22:56.809Z,1022.93
2017-04-04T10:24:06.285Z,1022.86
2017-04-04T10:25:15.129Z,1022.87
2017-04-04T10:26:23.974Z,1022.95
2017-04-04T10:27:32.821Z,1022.95
2017-04-04T10:28:41.667Z,1022.96
2017-04-04T10:29:50.829Z,1022.99
2017-04-04T10:30:59.678Z,1022.91
2017-04-04T10:32:08.527Z,1022.86
2017-04-04T10:33:17.376Z,1022.9
2017-04-04T10:34:26.215Z,1022.87
2017-04-04T10:35:35.378Z,1022.82
2017-04-04T10:36:44.227Z,1022.85
2017-04-04T10:37:53.083Z,1022.82
2017-04-04T10:39:01.941Z,1022.82
2017-04-04T10:40:10.790Z,1022.83
2017-04-04T10:41:19.637Z,1022.81
2017-04-04T10:42:28.487Z,1022.81
2017-04-04T10:43:37.337Z,1022.8
2017-04-04T10:44:46.185Z,1022.78
2017-04-04T10:45:55.032Z,1022.82
2017-04-04T10:47:03.881Z,1022.83
2017-04-04T10:48:12.723Z,1022.81
2017-04-04T10:49:21.567Z,1022.81
2017-04-04T10:50:30.414Z,1022.84
2017-04-04T10:51:39.259Z,1022.82
2017-04-04T10:52:48.108Z,1022.8
2017-04-04T10:53:56.956Z,1022.77
2017-04-04T10:55:05.801Z,1022.79
2017-04-04T10:56:14.651Z,1022.82
2017-04-04T10:57:23.826Z,1022.79
2017-04-04T10:58:32.677Z,1022.82
2017-04-04T10:59:41.528Z,1022.78
2017-04-04T11:00:50.381Z,1022.82
2017-04-04T11:01:59.224Z,1022.79
2017-04-04T11:03:08.070Z,1022.78
2017-04-04T11:04:16.916Z,1022.83
2017-04-04T11:05:25.767Z,1022.78
2017-04-04T11:06:34.611Z,1022.78
2017-04-04T11:07:43.471Z,1022.81
2017-04-04T11:08:52.324Z,1022.77
2017-04-04T11:10:01.182Z,1022.77
2017-04-04T11:11:10.029Z,1022.74
2017-04-04T11:12:18.874Z,1022.74
2017-04-04T11:13:28.050Z,1022.66
2017-04-04T11:14:36.906Z,1022.69
2017-04-04T11:15:45.749Z,1022.65
2017-04-04T11:16:54.599Z,1022.65
2017-04-04T11:18:03.441Z,1022.61
2017-04-04T11:19:12.286Z,1022.56
2017-04-04T11:20:21.139Z,1022.54
2017-04-04T11:21:30.620Z,1022.48
2017-04-04T11:22:39.471Z,1022.5
2017-04-04T11:23:48.318Z,1022.51
2017-04-04T11:24:57.165Z,1022.52
2017-04-04T11:26:06.017Z,1022.49
2017-04-04T11:27:14.857Z,1022.49
2017-04-04T11:28:23.708Z,1022.49
2017-04-04T11:29:32.550Z,1022.49
2017-04-04T11:30:41.401Z,1022.48
2017-04-04T11:31:50.564Z,1022.48
2017-04-04T11:32:59.409Z,1022.44
2017-04-04T11:34:08.258Z,1022.42
2017-04-04T11:35:17.152Z,1022.4
2017-04-04T11:36:26.010Z,1022.39
2017-04-04T11:37:34.856Z,1022.42
2017-04-04T11:38:43.707Z,1022.4
2017-04-04T11:39:52.546Z,1022.4
2017-04-04T11:41:01.386Z,1022.4
2017-04-04T11:42:10.231Z,1022.45
2017-04-04T11:43:19.079Z,1022.41
2017-04-04T11:44:27.932Z,1022.37
2017-04-04T11:45:36.816Z,1022.39
2017-04-04T11:46:45.666Z,1022.36
2017-04-04T11:47:54.512Z,1022.33
2017-04-04T11:49:03.672Z,1022.38
2017-04-04T11:50:12.513Z,1022.32
2017-04-04T11:51:21.372Z,1022.34
2017-04-04T11:52:30.534Z,1022.32
2017-04-04T11:53:39.389Z,1022.31
2017-04-04T11:54:48.229Z,1022.33
2017-04-04T11:55:57.077Z,1022.31
2017-04-04T11:57:05.920Z,1022.29
2017-04-04T11:58:14.808Z,1022.27
2017-04-04T11:59:23.663Z,1022.25
2017-04-04T12:00:32.510Z,1022.26
2017-04-04T12:01:41.367Z,1022.22
2017-04-04T12:02:50.535Z,1022.17
2017-04-04T12:03:59.378Z,1022.2
2017-04-04T12:05:08.230Z,1022.19
2017-04-04T12:06:17.389Z,1022.16
2017-04-04T12:07:26.243Z,1022.14
2017-04-04T12:08:35.088Z,1022.12
2017-04-04T12:09:43.934Z,1022.13
2017-04-04T12:10:52.778Z,1022.1
2017-04-04T12:12:01.635Z,1022.1
2017-04-04T12:13:10.479Z,1022.09
2017-04-04T12:14:19.325Z,1022.11
2017-04-04T12:15:28.177Z,1022.12
2017-04-04T12:16:37.018Z,1022.08
2017-04-04T12:17:45.868Z,1022.09
2017-04-04T12:18:54.718Z,1022.08
2017-04-04T12:20:03.565Z,1022.07
2017-04-04T12:21:12.411Z,1022.08
2017-04-04T12:22:21.578Z,1022.1
2017-04-04T12:23:30.428Z,1022.09
2017-04-04T12:24:39.278Z,1022.05
2017-04-04T12:25:48.135Z,1022.06
2017-04-04T12:26:57.298Z,1022.05
2017-04-04T12:28:06.143Z,1022.02
2017-04-04T12:29:14.990Z,1022.01
2017-04-04T12:30:23.833Z,1022.02
2017-04-04T12:31:32.688Z,1022.03
2017-04-04T12:32:41.537Z,1022.04
2017-04-04T12:33:50.472Z,1022.03
2017-04-04T12:35:03.430Z,1022.03
2017-04-04T12:36:12.280Z,1022.03
2017-04-04T12:37:21.128Z,1021.99
2017-04-04T12:38:29.973Z,1021.99
2017-04-04T12:39:38.819Z,1022
2017-04-04T12:40:47.664Z,1021.96
2017-04-04T12:41:56.512Z,1021.93
2017-04-04T12:43:05.370Z,1021.94
2017-04-04T12:44:14.215Z,1021.93
2017-04-04T12:45:23.062Z,1021.94
2017-04-04T12:46:31.906Z,1021.9
2017-04-04T12:47:40.751Z,1021.89
2017-04-04T12:48:49.605Z,1021.85
2017-04-04T12:49:58.451Z,1021.85
2017-04-04T12:51:07.318Z,1021.81
2017-04-04T12:52:16.163Z,1021.83
2017-04-04T12:53:25.475Z,1021.74
2017-04-04T12:54:34.340Z,1021.69
2017-04-04T12:55:43.203Z,1021.68
2017-04-04T12:56:52.057Z,1021.62
2017-04-04T12:58:01.236Z,1021.61
2017-04-04T12:59:10.089Z,1021.6
2017-04-04T13:00:18.938Z,1021.62
2017-04-04T13:01:28.250Z,1021.59
2017-04-04T13:02:41.478Z,1021.62
2017-04-04T13:03:50.331Z,1021.62
2017-04-04T13:04:59.181Z,1021.61
2017-04-04T13:06:08.024Z,1021.6
2017-04-04T13:07:16.875Z,1021.57
2017-04-04T13:08:25.736Z,1021.54
2017-04-04T13:09:34.581Z,1021.57
2017-04-04T13:10:43.431Z,1021.55
2017-04-04T13:11:52.282Z,1021.55
2017-04-04T13:13:01.448Z,1021.54
2017-04-04T13:14:10.299Z,1021.52
2017-04-04T13:15:19.147Z,1021.58
2017-04-04T13:16:27.995Z,1021.55
2017-04-04T13:17:36.840Z,1021.55
2017-04-04T13:18:45.696Z,1021.54
2017-04-04T13:19:54.546Z,1021.47
2017-04-04T13:21:03.403Z,1021.44
2017-04-04T13:22:12.567Z,1021.46
2017-04-04T13:23:21.417Z,1021.43
2017-04-04T13:24:30.270Z,1021.44
2017-04-04T13:25:39.127Z,1021.45
2017-04-04T13:26:47.975Z,1021.44
2017-04-04T13:27:56.826Z,1021.44
2017-04-04T13:29:05.677Z,1021.46
2017-04-04T13:30:14.521Z,1021.45
2017-04-04T13:31:23.371Z,1021.48
2017-04-04T13:32:32.224Z,1021.53
2017-04-04T13:33:41.076Z,1021.52
2017-04-04T13:34:49.928Z,1021.55
2017-04-04T13:35:59.090Z,1021.52
2017-04-04T13:37:07.944Z,1021.58
2017-04-04T13:38:16.795Z,1021.51
2017-04-04T13:39:25.644Z,1021.48
2017-04-04T13:40:34.495Z,1021.44
2017-04-04T13:41:43.348Z,1021.45
2017-04-04T13:42:52.197Z,1021.47
2017-04-04T13:44:01.044Z,1021.42
2017-04-04T13:45:09.894Z,1021.42
2017-04-04T13:46:18.746Z,1021.41
2017-04-04T13:47:27.603Z,1021.39
2017-04-04T13:48:36.448Z,1021.38
2017-04-04T13:49:45.308Z,1021.41
2017-04-04T13:50:54.159Z,1021.4
2017-04-04T13:52:03.012Z,1021.41
2017-04-04T13:53:11.880Z,1021.37
2017-04-04T13:54:20.728Z,1021.39
2017-04-04T13:55:29.573Z,1021.35
2017-04-04T13:56:38.424Z,1021.37
2017-04-04T13:57:47.272Z,1021.34
2017-04-04T13:58:56.124Z,1021.36
2017-04-04T14:00:05.012Z,1021.32
2017-04-04T14:01:13.858Z,1021.36
2017-04-04T14:02:22.708Z,1021.33
2017-04-04T14:03:31.557Z,1021.34
2017-04-04T14:04:40.466Z,1021.3
2017-04-04T14:05:49.318Z,1021.29
2017-04-04T14:06:58.170Z,1021.27
2017-04-04T14:08:07.025Z,1021.25
2017-04-04T14:09:15.879Z,1021.3
2017-04-04T14:10:24.729Z,1021.26
2017-04-04T14:11:33.577Z,1021.28
2017-04-04T14:12:42.426Z,1021.24
2017-04-04T14:13:51.278Z,1021.23
2017-04-04T14:15:00.126Z,1021.25
2017-04-04T14:16:08.971Z,1021.25
2017-04-04T14:17:17.815Z,1021.24
2017-04-04T14:18:26.669Z,1021.23
2017-04-04T14:19:35.513Z,1021.21
2017-04-04T14:20:44.371Z,1021.26
2017-04-04T14:21:53.220Z,1021.25
2017-04-04T14:23:02.074Z,1021.27
2017-04-04T14:24:10.923Z,1021.28
2017-04-04T14:25:20.099Z,1021.28
2017-04-04T14:26:28.952Z,1021.29
2017-04-04T14:27:37.811Z,1021.3
2017-04-04T14:28:46.664Z,1021.31
2017-04-04T14:29:55.513Z,1021.26
2017-04-04T14:31:04.362Z,1021.29
2017-04-04T14:32:13.262Z,1021.27
2017-04-04T14:33:22.108Z,1021.26
2017-04-04T14:34:30.959Z,1021.28
2017-04-04T14:35:39.804Z,1021.29
2017-04-04T14:36:49.090Z,1021.3
2017-04-04T14:37:57.939Z,1021.28
2017-04-04T14:39:06.798Z,1021.28
2017-04-04T14:40:15.650Z,1021.28
2017-04-04T14:41:24.495Z,1021.28
2017-04-04T14:42:33.346Z,1021.33
2017-04-04T14:43:42.193Z,1021.31
2017-04-04T14:44:51.039Z,1021.35
2017-04-04T14:45:59.887Z,1021.33
2017-04-04T14:47:08.740Z,1021.36
2017-04-04T14:48:17.585Z,1021.36
2017-04-04T14:49:26.436Z,1021.38
2017-04-04T14:50:35.277Z,1021.37
2017-04-04T14:51:44.137Z,1021.38
2017-04-04T14:52:52.988Z,1021.41
2017-04-04T14:54:01.835Z,1021.43
2017-04-04T14:55:10.683Z,1021.46
2017-04-04T14:56:19.530Z,1021.49
2017-04-04T14:57:28.730Z,1021.5
2017-04-04T14:58:37.573Z,1021.46
2017-04-04T14:59:46.445Z,1021.5
2017-04-04T15:00:55.295Z,1021.52
2017-04-04T15:02:04.140Z,1021.5
2017-04-04T15:03:12.994Z,1021.53
2017-04-04T15:04:21.839Z,1021.51
2017-04-04T15:05:30.688Z,1021.55
2017-04-04T15:06:39.530Z,1021.54
2017-04-04T15:07:48.376Z,1021.58
2017-04-04T15:08:57.221Z,1021.51
2017-04-04T15:10:06.086Z,1021.52
2017-04-04T15:11:14.931Z,1021.57
2017-04-04T15:12:23.788Z,1021.54
2017-04-04T15:13:32.640Z,1021.54
2017-04-04T15:14:41.490Z,1021.55
2017-04-04T15:15:50.340Z,1021.55
2017-04-04T15:16:59.189Z,1021.54
2017-04-04T15:18:08.041Z,1021.51
2017-04-04T15:19:16.883Z,1021.5
2017-04-04T15:20:25.731Z,1021.47
2017-04-04T15:21:34.901Z,1021.45
2017-04-04T15:22:43.751Z,1021.47
2017-04-04T15:23:52.604Z,1021.41
2017-04-04T15:25:01.778Z,1021.41
2017-04-04T15:26:10.623Z,1021.46
2017-04-04T15:27:19.471Z,1021.46
2017-04-04T15:28:28.321Z,1021.4
2017-04-04T15:29:37.165Z,1021.43
2017-04-04T15:30:46.006Z,1021.41
2017-04-04T15:31:54.859Z,1021.44
2017-04-04T15:33:03.715Z,1021.42
2017-04-04T15:34:12.569Z,1021.46
2017-04-04T15:35:22.050Z,1021.43
2017-04-04T15:36:30.896Z,1021.48
2017-04-04T15:37:39.742Z,1021.45
2017-04-04T15:38:48.591Z,1021.51
2017-04-04T15:39:57.437Z,1021.56
2017-04-04T15:41:06.291Z,1021.53
2017-04-04T15:42:15.142Z,1021.57
2017-04-04T15:43:23.991Z,1021.62
2017-04-04T15:44:32.883Z,1021.61
2017-04-04T15:45:41.729Z,1021.61
2017-04-04T15:46:50.581Z,1021.64
2017-04-04T15:47:59.439Z,1021.64
2017-04-04T15:49:08.281Z,1021.63
2017-04-04T15:50:17.451Z,1021.65
2017-04-04T15:51:26.302Z,1021.62
2017-04-04T15:52:35.143Z,1021.58
2017-04-04T15:53:43.985Z,1021.58
2017-04-04T15:54:52.820Z,1021.63
2017-04-04T15:56:01.665Z,1021.61
2017-04-04T15:57:10.512Z,1021.62
2017-04-04T15:58:19.351Z,1021.59
2017-04-04T15:59:28.204Z,1021.58
2017-04-04T16:00:37.047Z,1021.57
2017-04-04T16:01:45.888Z,1021.59
2017-04-04T16:02:54.740Z,1021.57
2017-04-04T16:04:03.582Z,1021.58
2017-04-04T16:05:12.429Z,1021.61
2017-04-04T16:06:21.275Z,1021.56
2017-04-04T16:07:30.119Z,1021.53
2017-04-04T16:08:38.963Z,1021.58
2017-04-04T16:09:47.809Z,1021.6
2017-04-04T16:10:56.664Z,1021.63
2017-04-04T16:12:05.511Z,1021.64
2017-04-04T16:13:14.357Z,1021.64
2017-04-04T16:14:23.196Z,1021.62
2017-04-04T16:15:32.040Z,1021.65
2017-04-04T16:16:40.879Z,1021.68
2017-04-04T16:17:49.724Z,1021.67
2017-04-04T16:18:58.565Z,1021.68
2017-04-04T16:20:07.408Z,1021.71
2017-04-04T16:21:16.252Z,1021.74
2017-04-04T16:22:25.097Z,1021.72
2017-04-04T16:23:33.967Z,1021.71
2017-04-04T16:24:42.917Z,1021.72
2017-04-04T16:25:51.789Z,1021.68
2017-04-04T16:27:00.626Z,1021.67
2017-04-04T16:28:09.787Z,1021.65
2017-04-04T16:29:18.635Z,1021.65
2017-04-04T16:30:27.480Z,1021.66
2017-04-04T16:31:36.321Z,1021.67
2017-04-04T16:32:45.166Z,1021.68
2017-04-04T16:33:54.015Z,1021.69
2017-04-04T16:35:03.199Z,1021.69
2017-04-04T16:36:12.062Z,1021.63
2017-04-04T16:37:20.908Z,1021.64
2017-04-04T16:38:29.854Z,1021.64
2017-04-04T16:39:38.695Z,1021.65
2017-04-04T16:40:47.554Z,1021.62
2017-04-04T16:41:56.404Z,1021.63
2017-04-04T16:43:05.271Z,1021.62
2017-04-04T16:44:14.112Z,1021.58
2017-04-04T16:45:22.984Z,1021.58
2017-04-04T16:46:31.826Z,1021.58
2017-04-04T16:47:40.669Z,1021.61
2017-04-04T16:48:49.522Z,1021.56
2017-04-04T16:49:58.377Z,1021.54
2017-04-04T16:51:07.229Z,1021.53
2017-04-04T16:52:16.113Z,1021.49
2017-04-04T16:53:24.955Z,1021.53
2017-04-04T16:54:33.796Z,1021.5
2017-04-04T16:55:42.633Z,1021.52
2017-04-04T16:56:51.500Z,1021.46
2017-04-04T16:58:00.344Z,1021.52
2017-04-04T16:59:09.189Z,1021.53
2017-04-04T17:00:18.058Z,1021.57
2017-04-04T17:01:26.909Z,1021.57
2017-04-04T17:02:35.770Z,1021.55
2017-04-04T17:03:44.690Z,1021.54
2017-04-04T17:04:53.555Z,1021.52
2017-04-04T17:06:02.398Z,1021.48
2017-04-04T17:07:11.240Z,1021.53
2017-04-04T17:08:20.398Z,1021.51
2017-04-04T17:09:29.242Z,1021.47
2017-04-04T17:10:38.086Z,1021.52
2017-04-04T17:11:46.968Z,1021.53
2017-04-04T17:12:55.856Z,1021.51
2017-04-04T17:14:05.038Z,1021.51
2017-04-04T17:15:13.891Z,1021.52
2017-04-04T17:16:22.739Z,1021.5
2017-04-04T17:17:31.900Z,1021.49
2017-04-04T17:18:41.059Z,1021.52
2017-04-04T17:19:49.905Z,1021.46
2017-04-04T17:20:58.750Z,1021.5
2017-04-04T17:22:07.658Z,1021.49
2017-04-04T17:23:16.529Z,1021.5
2017-04-04T17:24:25.687Z,1021.53
2017-04-04T17:25:34.533Z,1021.51
2017-04-04T17:26:43.374Z,1021.51
2017-04-04T17:27:52.226Z,1021.52
2017-04-04T17:29:01.073Z,1021.53
2017-04-04T17:30:09.915Z,1021.55
2017-04-04T17:31:18.770Z,1021.51
2017-04-04T17:32:27.834Z,1021.46
2017-04-04T17:33:36.753Z,1021.48
2017-04-04T17:34:45.687Z,1021.47
2017-04-04T17:35:56.151Z,1021.46
2017-04-04T17:37:05.318Z,1021.46
2017-04-04T17:38:14.879Z,1021.44
2017-04-04T17:39:23.770Z,1021.46
2017-04-04T17:40:32.669Z,1021.45
2017-04-04T17:41:41.585Z,1021.51
2017-04-04T17:42:50.442Z,1021.49
2017-04-04T17:43:59.311Z,1021.47
2017-04-04T17:45:08.181Z,1021.48
2017-04-04T17:46:17.022Z,1021.49
2017-04-04T17:47:25.915Z,1021.5
2017-04-04T17:48:34.762Z,1021.51
2017-04-04T17:49:43.620Z,1021.56
